Time;durP1;ratioP1;P1;durP2;ratioP2;P2;SDS_P1;SDS_P2;PMS_P1;PMS_P2;Temp;Humidity;BMP_temperature;BMP_pressure;BME280_temperature;BME280_humidity;BME280_pressure;Samples;Min_cycle;Max_cycle;Signal;HPM_P1;HPM_P2
2024/02/18 00:01:44;;;;;;;9.77;5.22;;;8.00;99.90;;;;;;5010259;28;19905;-79
2024/02/18 00:04:12;;;;;;;11.55;6.30;;;8.10;99.90;;;;;;5009692;28;20022;-77
2024/02/18 00:06:38;;;;;;;15.30;8.02;;;8.10;99.90;;;;;;5027832;28;20085;-78
2024/02/18 00:09:04;;;;;;;;;;;8.10;99.90;;;;;;5009147;28;20040;-78
2024/02/18 00:11:29;;;;;;;33.13;15.13;;;8.00;99.90;;;;;;5021064;28;19913;-78
2024/02/18 00:13:55;;;;;;;;;;;7.90;99.90;;;;;;5025555;28;20026;-79
2024/02/18 00:16:20;;;;;;;23.73;14.15;;;7.80;99.90;;;;;;5022341;28;19917;-77
2024/02/18 00:18:46;;;;;;;;;;;7.80;99.90;;;;;;4998554;28;20124;-77
2024/02/18 00:21:18;;;;;;;24.85;12.82;;;7.70;99.90;;;;;;5004527;28;19906;-78
2024/02/18 00:23:44;;;;;;;23.48;13.48;;;7.70;99.90;;;;;;5025131;28;20025;-78
2024/02/18 00:26:14;;;;;;;27.58;14.45;;;7.60;99.90;;;;;;5024370;28;20041;-78
2024/02/18 00:28:39;;;;;;;26.50;14.82;;;7.60;99.90;;;;;;5023780;28;20085;-77
2024/02/18 00:31:05;;;;;;;;;;;7.60;99.90;;;;;;5013723;28;20057;-78
2024/02/18 00:33:32;;;;;;;15.27;7.45;;;7.60;99.90;;;;;;5027749;28;19918;-80
2024/02/18 00:35:57;;;;;;;10.90;5.40;;;7.60;99.90;;;;;;5027514;28;20034;-77
2024/02/18 00:38:23;;;;;;;;;;;7.70;99.90;;;;;;5027417;28;20057;-78
2024/02/18 00:40:49;;;;;;;8.50;3.80;;;7.60;99.90;;;;;;5027249;28;20340;-77
2024/02/18 00:43:14;;;;;;;;;;;7.70;99.90;;;;;;5011433;28;20053;-77
2024/02/18 00:45:40;;;;;;;20.50;8.77;;;7.70;99.90;;;;;;5029094;28;19921;-77
2024/02/18 00:48:08;;;;;;;;;;;7.70;99.90;;;;;;5034130;28;20033;-79
2024/02/18 00:50:34;;;;;;;9.27;4.22;;;7.80;99.90;;;;;;5014450;28;19970;-77
2024/02/18 00:52:59;;;;;;;;;;;7.80;99.90;;;;;;5028686;28;20601;-78
2024/02/18 00:55:25;;;;;;;5.32;2.20;;;7.90;99.90;;;;;;5010558;28;19948;-78
2024/02/18 00:57:50;;;;;;;;;;;7.90;99.90;;;;;;5032073;28;20060;-77
2024/02/18 01:00:16;;;;;;;4.63;2.13;;;7.90;99.90;;;;;;5006378;28;19944;-77
2024/02/18 01:02:42;;;;;;;;;;;8.00;99.90;;;;;;5025791;28;20076;-78
2024/02/18 01:05:08;;;;;;;8.55;4.30;;;8.00;99.90;;;;;;5006632;28;19976;-77
2024/02/18 01:07:34;;;;;;;7.75;3.78;;;8.00;99.90;;;;;;5006956;28;20038;-78
2024/02/18 01:09:59;;;;;;;;;;;7.90;99.90;;;;;;5026503;28;20026;-78
2024/02/18 01:12:25;;;;;;;6.57;3.20;;;8.10;99.90;;;;;;5007401;28;19972;-78
2024/02/18 01:14:50;;;;;;;;;;;8.00;99.90;;;;;;5007116;28;20076;-78
2024/02/18 01:17:16;;;;;;;7.60;3.08;;;8.00;99.90;;;;;;5007086;28;19972;-78
2024/02/18 01:19:41;;;;;;;;;;;7.90;99.90;;;;;;5024758;28;20022;-77
2024/02/18 01:22:07;;;;;;;5.07;3.10;;;8.00;99.90;;;;;;5007845;28;19945;-78
2024/02/18 01:24:32;;;;;;;;;;;7.90;99.90;;;;;;5007902;28;20478;-78
2024/02/18 01:26:58;;;;;;;7.35;3.60;;;7.80;99.90;;;;;;5025245;28;19912;-78
2024/02/18 01:29:24;;;;;;;;;;;7.80;99.90;;;;;;5024697;28;20030;-77
2024/02/18 01:31:49;;;;;;;12.43;4.55;;;7.70;99.90;;;;;;5006737;28;20589;-77
2024/02/18 01:34:15;;;;;;;;;;;7.70;99.90;;;;;;5006171;28;20040;-76
2024/02/18 01:36:41;;;;;;;6.13;3.70;;;7.80;99.90;;;;;;5006104;28;19905;-78
2024/02/18 01:39:07;;;;;;;;;;;7.70;99.90;;;;;;5006608;28;20076;-77
2024/02/18 01:41:33;;;;;;;9.05;4.07;;;7.60;99.90;;;;;;5006498;28;19906;-77
2024/02/18 01:43:58;;;;;;;;;;;7.60;99.90;;;;;;5006221;28;20049;-78
2024/02/18 01:46:24;;;;;;;9.27;4.38;;;7.40;99.90;;;;;;5024172;28;19929;-77
2024/02/18 01:48:51;;;;;;;5.97;3.75;;;7.40;99.90;;;;;;5006069;28;20057;-77
2024/02/18 01:51:17;;;;;;;11.20;6.15;;;7.40;99.90;;;;;;5020350;28;20034;-77
2024/02/18 01:53:43;;;;;;;;;;;7.40;99.90;;;;;;5021014;28;20132;-78
2024/02/18 01:56:11;;;;;;;11.27;5.70;;;7.40;99.90;;;;;;5003161;28;19959;-78
2024/02/18 01:58:37;;;;;;;10.57;5.85;;;7.30;99.90;;;;;;5002123;28;20029;-75
2024/02/18 02:01:03;;;;;;;7.85;5.18;;;7.30;99.90;;;;;;5020979;28;20029;-76
2024/02/18 02:03:29;;;;;;;;;;;7.30;99.90;;;;;;5003291;28;20026;-77
2024/02/18 02:05:57;;;;;;;8.13;4.55;;;7.30;99.90;;;;;;5003575;28;19909;-78
2024/02/18 02:08:23;;;;;;;9.55;5.63;;;7.30;99.90;;;;;;5021280;28;20014;-79
2024/02/18 02:10:50;;;;;;;;;;;7.30;99.90;;;;;;5004416;28;20109;-78
2024/02/18 02:13:16;;;;;;;10.18;6.70;;;7.30;99.90;;;;;;5004301;28;19905;-77
2024/02/18 02:15:41;;;;;;;;;;;7.30;99.90;;;;;;5023321;28;20114;-78
2024/02/18 02:18:07;;;;;;;11.30;6.82;;;7.30;99.90;;;;;;5013101;28;20400;-79
2024/02/18 02:20:32;;;;;;;;;;;7.30;99.90;;;;;;5021655;28;20037;-79
2024/02/18 02:22:58;;;;;;;10.57;6.00;;;7.30;99.90;;;;;;5005380;28;19958;-79
2024/02/18 02:25:24;;;;;;;;;;;7.20;99.90;;;;;;5001842;28;20072;-78
2024/02/18 02:27:56;;;;;;;;;;;7.20;99.90;;;;;;5001153;28;19948;-77
2024/02/18 02:30:21;;;;;;;;;;;7.20;99.90;;;;;;5012386;28;19913;-78
2024/02/18 02:32:47;;;;;;;;;;;7.10;99.90;;;;;;5012716;28;19905;-77
2024/02/18 02:35:12;;;;;;;;;;;7.10;99.90;;;;;;5029847;28;19949;-79
2024/02/18 02:37:39;;;;;;;;;;;7.10;99.90;;;;;;5005689;28;19995;-78
2024/02/18 02:40:05;;;;;;;;;;;7.00;99.90;;;;;;5007018;28;19909;-79
2024/02/18 02:42:32;;;;;;;;;;;7.00;99.90;;;;;;5003778;28;19955;-77
2024/02/18 02:44:58;;;;;;;;;;;7.10;99.90;;;;;;5003651;28;19921;-78
2024/02/18 02:47:24;;;;;;;;;;;7.00;99.90;;;;;;5005975;28;19913;-78
2024/02/18 02:49:49;;;;;;;;;;;7.00;99.90;;;;;;5009352;28;19952;-78
2024/02/18 02:52:15;;;;;;;;;;;7.00;99.90;;;;;;5009811;28;19940;-78
2024/02/18 02:54:40;;;;;;;;;;;7.10;99.90;;;;;;5027568;28;19921;-79
2024/02/18 02:57:06;;;;;;;;;;;7.10;99.90;;;;;;5026553;28;19940;-79
2024/02/18 02:59:31;;;;;;;;;;;7.00;99.90;;;;;;5009463;28;19957;-78
2024/02/18 03:01:57;;;;;;;;;;;7.10;99.90;;;;;;5026141;28;19905;-78
2024/02/18 03:04:22;;;;;;;;;;;7.10;99.90;;;;;;5009784;28;19906;-79
2024/02/18 03:06:48;;;;;;;;;;;7.00;99.90;;;;;;5009715;28;19905;-79
2024/02/18 03:09:13;;;;;;;;;;;7.30;99.90;;;;;;5009383;28;19910;-79
2024/02/18 03:11:39;;;;;;;;;;;6.40;99.90;;;;;;5007713;28;19909;-76
2024/02/18 03:14:04;;;;;;;;;;;6.90;99.90;;;;;;5007891;28;19910;-78
2024/02/18 03:16:30;;;;;;;;;;;6.90;99.90;;;;;;5007733;28;19921;-78
2024/02/18 03:18:56;;;;;;;;;;;6.90;99.90;;;;;;5007296;28;19916;-78
2024/02/18 03:21:22;;;;;;;;;;;6.90;99.90;;;;;;5025355;28;19909;-78
2024/02/18 03:23:49;;;;;;;;;;;6.80;99.90;;;;;;5008477;28;19967;-78
2024/02/18 03:26:14;;;;;;;;;;;6.80;99.90;;;;;;5008046;28;19944;-78
2024/02/18 03:28:40;;;;;;;;;;;6.80;99.90;;;;;;5007586;28;19909;-77
2024/02/18 03:31:05;;;;;;;;;;;7.00;99.90;;;;;;5006446;28;19909;-78
2024/02/18 03:33:31;;;;;;;;;;;7.00;99.90;;;;;;5024686;28;19912;-77
2024/02/18 03:35:56;;;;;;;;;;;6.80;99.90;;;;;;5023814;28;20406;-79
2024/02/18 03:38:22;;;;;;;;;;;6.80;99.90;;;;;;5006922;28;19909;-79
2024/02/18 03:40:48;;;;;;;;;;;6.70;99.90;;;;;;5025102;28;19939;-78
2024/02/18 03:43:13;;;;;;;;;;;6.60;99.90;;;;;;5023925;28;19906;-78
2024/02/18 03:45:39;;;;;;;;;;;6.70;99.90;;;;;;5005509;28;19921;-77
2024/02/18 03:48:05;;;;;;;;;;;6.70;99.90;;;;;;5024251;28;19909;-78
2024/02/18 03:50:31;;;;;;;;;;;6.70;99.90;;;;;;5007303;28;19981;-78
2024/02/18 03:52:56;;;;;;;;;;;6.70;99.90;;;;;;5008438;28;19992;-78
2024/02/18 03:55:22;;;;;;;;;;;6.70;99.90;;;;;;5008341;28;19940;-78
2024/02/18 03:57:48;;;;;;;;;;;6.80;99.90;;;;;;5031237;28;19909;-79
2024/02/18 04:00:13;;;;;;;;;;;7.00;99.90;;;;;;5024028;28;19925;-77
2024/02/18 04:02:40;;;;;;;;;;;7.00;99.90;;;;;;5004974;28;19909;-78
2024/02/18 04:05:06;;;;;;;;;;;7.10;99.90;;;;;;5007671;28;19905;-79
2024/02/18 04:07:33;;;;;;;;;;;7.00;99.90;;;;;;5004996;28;19967;-78
2024/02/18 04:09:58;;;;;;;;;;;7.10;99.90;;;;;;5003673;28;19909;-78
2024/02/18 04:12:24;;;;;;;;;;;7.10;99.90;;;;;;5004245;28;20016;-77
2024/02/18 04:14:50;;;;;;;;;;;7.10;99.90;;;;;;5021254;28;19988;-78
2024/02/18 04:17:15;;;;;;;;;;;7.10;99.90;;;;;;5003838;28;19910;-78
2024/02/18 04:19:41;;;;;;;;;;;7.30;99.90;;;;;;5009173;28;19917;-77
2024/02/18 04:22:06;;;;;;;;;;;7.10;99.90;;;;;;5009987;28;20401;-78
2024/02/18 04:24:32;;;;;;;;;;;7.00;99.90;;;;;;5021183;28;20397;-78
2024/02/18 04:26:59;;;;;;;;;;;7.10;99.90;;;;;;5028607;28;19913;-78
2024/02/18 04:29:25;;;;;;;;;;;7.10;99.90;;;;;;5023483;28;19915;-77
2024/02/18 04:31:50;;;;;;;;;;;7.10;99.90;;;;;;5007782;28;20409;-78
2024/02/18 04:34:16;;;;;;;;;;;7.00;99.90;;;;;;5022910;28;20396;-78
2024/02/18 04:36:41;;;;;;;;;;;7.00;99.90;;;;;;5024252;28;19912;-77
2024/02/18 04:39:07;;;;;;;;;;;7.00;99.90;;;;;;5006112;28;19909;-78
2024/02/18 04:41:32;;;;;;;;;;;7.10;99.90;;;;;;5004340;28;19988;-78
2024/02/18 04:43:58;;;;;;;;;;;7.10;99.90;;;;;;5022413;28;20406;-78
2024/02/18 04:46:23;;;;;;;;;;;7.10;99.90;;;;;;5005455;28;19909;-78
2024/02/18 04:48:50;;;;;;;;;;;7.10;99.90;;;;;;5006568;28;19911;-79
2024/02/18 04:51:16;;;;;;;;;;;7.10;99.90;;;;;;5020343;28;19916;-78
2024/02/18 04:53:41;;;;;;;;;;;7.10;99.90;;;;;;5019579;28;19996;-78
2024/02/18 04:56:07;;;;;;;;;;;7.10;99.90;;;;;;5020915;28;19917;-77
2024/02/18 04:58:33;;;;;;;;;;;7.00;99.90;;;;;;5003551;28;19960;-78
2024/02/18 05:00:58;;;;;;;;;;;6.80;99.90;;;;;;5002622;28;19917;-78
2024/02/18 05:03:24;;;;;;;;;;;6.80;99.90;;;;;;5001946;28;19913;-78
2024/02/18 05:05:49;;;;;;;;;;;6.80;99.90;;;;;;5005929;28;20331;-77
2024/02/18 05:08:15;;;;;;;;;;;6.60;99.90;;;;;;5007322;28;19912;-78
2024/02/18 05:10:40;;;;;;;;;;;6.50;99.90;;;;;;5024253;28;20363;-77
2024/02/18 05:13:06;;;;;;;;;;;6.60;99.90;;;;;;5020355;28;19906;-78
2024/02/18 05:15:32;;;;;;;;;;;6.40;99.90;;;;;;5001391;28;20544;-77
2024/02/18 05:17:57;;;;;;;;;;;6.30;99.90;;;;;;5019550;28;20397;-78
2024/02/18 05:20:23;;;;;;;;;;;6.20;99.90;;;;;;5003514;28;20483;-77
2024/02/18 05:22:49;;;;;;;;;;;6.10;99.90;;;;;;5021360;28;19905;-78
2024/02/18 05:25:16;;;;;;;;;;;6.10;99.90;;;;;;5003009;28;19952;-77
2024/02/18 05:27:42;;;;;;;;;;;6.10;99.90;;;;;;5024518;28;19905;-79
2024/02/18 05:30:07;;;;;;;;;;;6.10;99.90;;;;;;5008501;28;19905;-78
2024/02/18 05:32:33;;;;;;;;;;;6.00;99.90;;;;;;5025052;28;19906;-78
2024/02/18 05:34:58;;;;;;;;;;;6.00;99.90;;;;;;5021880;28;20386;-77
2024/02/18 05:37:24;;;;;;;;;;;6.00;99.90;;;;;;5003606;28;20366;-77
2024/02/18 05:39:49;;;;;;;;;;;6.00;99.90;;;;;;5012741;28;19905;-79
2024/02/18 05:42:15;;;;;;;;;;;6.00;99.90;;;;;;5029500;28;19945;-78
2024/02/18 05:44:42;;;;;;;;;;;6.00;99.90;;;;;;5008186;28;19921;-78
2024/02/18 05:47:08;;;;;;;;;;;5.90;99.90;;;;;;5007870;28;19963;-78
2024/02/18 05:49:33;;;;;;;;;;;5.80;99.90;;;;;;5022727;28;19906;-78
2024/02/18 05:51:59;;;;;;;;;;;5.90;99.90;;;;;;5002780;28;19984;-78
2024/02/18 05:54:24;;;;;;;;;;;5.80;99.90;;;;;;5000946;28;19912;-78
2024/02/18 05:56:50;;;;;;;;;;;5.80;99.90;;;;;;5001906;28;19917;-77
2024/02/18 05:59:15;;;;;;;;;;;5.70;99.90;;;;;;5020276;28;19906;-78
2024/02/18 06:01:42;;;;;;;;;;;5.60;99.90;;;;;;5001726;28;19910;-79
2024/02/18 06:04:08;;;;;;;;;;;5.60;99.90;;;;;;4994512;28;20334;-76
2024/02/18 06:06:33;;;;;;;;;;;5.70;99.90;;;;;;4997908;28;19909;-77
2024/02/18 06:08:59;;;;;;;;;;;5.40;99.90;;;;;;5003102;28;20012;-76
2024/02/18 06:11:24;;;;;;;;;;;5.40;99.90;;;;;;5020144;28;19980;-77
2024/02/18 06:13:50;;;;;;;;;;;5.40;99.90;;;;;;5005947;28;20285;-77
2024/02/18 06:16:16;;;;;;;;;;;5.50;99.90;;;;;;5005391;28;19920;-78
2024/02/18 06:18:41;;;;;;;;;;;5.80;99.90;;;;;;5007076;28;19919;-78
2024/02/18 06:21:07;;;;;;;;;;;5.70;99.90;;;;;;5006323;28;19905;-78
2024/02/18 06:23:32;;;;;;;;;;;5.90;99.90;;;;;;5022779;28;19952;-78
2024/02/18 06:25:58;;;;;;;;;;;5.80;99.90;;;;;;5005760;28;20278;-78
2024/02/18 06:28:31;;;;;;;;;;;5.90;99.90;;;;;;5005451;28;19925;-78
2024/02/18 06:30:58;;;;;;;;;;;5.80;99.90;;;;;;5006780;28;19920;-79
2024/02/18 06:33:23;;;;;;;;;;;6.10;99.90;;;;;;5007843;28;19897;-78
2024/02/18 06:35:49;;;;;;;;;;;6.20;99.90;;;;;;5005844;28;19913;-78
2024/02/18 06:38:14;;;;;;;;;;;6.20;99.90;;;;;;5006501;28;19912;-78
2024/02/18 06:40:40;;;;;;;;;;;6.40;99.90;;;;;;5005969;28;19910;-78
2024/02/18 06:43:06;;;;;;;;;;;6.50;99.90;;;;;;5025205;28;19928;-78
2024/02/18 06:45:31;;;;;;;;;;;6.50;99.90;;;;;;5012579;28;19917;-78
2024/02/18 06:47:57;;;;;;;;;;;6.60;99.90;;;;;;5016161;28;19952;-79
2024/02/18 06:50:23;;;;;;;;;;;6.80;99.90;;;;;;5015387;28;19905;-78
2024/02/18 06:52:49;;;;;;;;;;;6.90;99.90;;;;;;5033357;28;19905;-79
2024/02/18 06:55:14;;;;;;;;;;;7.10;99.90;;;;;;5033285;28;19916;-79
2024/02/18 06:57:43;;;;;;;;;;;7.10;99.90;;;;;;5015321;28;19913;-79
2024/02/18 07:00:08;;;;;;;;;;;7.30;99.90;;;;;;5013536;28;19905;-79
2024/02/18 07:02:34;;;;;;;;;;;7.20;99.90;;;;;;5015402;28;20064;-79
2024/02/18 07:05:00;;;;;;;;;;;7.20;99.90;;;;;;5033887;28;19916;-79
2024/02/18 07:07:26;;;;;;;;;;;7.30;99.90;;;;;;5033244;28;19945;-79
2024/02/18 07:09:51;;;;;;;;;;;7.30;99.90;;;;;;5022118;28;20012;-78
2024/02/18 07:12:17;;;;;;;;;;;7.40;99.90;;;;;;5003727;28;19905;-78
2024/02/18 07:14:42;;;;;;;;;;;7.50;99.90;;;;;;5020876;28;20309;-78
2024/02/18 07:17:09;;;;;;;;;;;7.60;99.90;;;;;;5022469;28;19905;-78
2024/02/18 07:19:34;;;;;;;;;;;7.70;99.90;;;;;;5005575;28;19909;-78
2024/02/18 07:22:00;;;;;;;;;;;7.90;99.90;;;;;;5021496;28;19909;-77
2024/02/18 07:24:25;;;;;;;;;;;7.90;99.90;;;;;;5009579;28;19915;-80
2024/02/18 07:26:51;;;;;;;;;;;7.90;99.90;;;;;;5012771;28;19905;-79
2024/02/18 07:29:16;;;;;;;;;;;8.00;99.90;;;;;;5027914;28;19976;-78
2024/02/18 07:31:42;;;;;;;;;;;8.20;99.90;;;;;;5006522;28;19940;-78
2024/02/18 07:34:07;;;;;;;;;;;8.40;99.90;;;;;;5006892;28;19967;-78
2024/02/18 07:36:33;;;;;;;;;;;8.60;99.90;;;;;;5006017;28;19960;-78
2024/02/18 07:38:59;;;;;;;;;;;8.70;99.90;;;;;;5022855;28;19910;-78
2024/02/18 07:41:25;;;;;;;;;;;8.70;99.90;;;;;;5024377;28;19909;-78
2024/02/18 07:43:51;;;;;;;;;;;8.70;99.90;;;;;;5002724;28;19917;-78
2024/02/18 07:46:16;;;;;;;;;;;8.90;99.90;;;;;;5002514;28;19976;-79
2024/02/18 07:48:42;;;;;;;;;;;8.90;99.90;;;;;;5007244;28;19905;-79
2024/02/18 07:51:07;;;;;;;;;;;9.00;99.90;;;;;;5007646;28;19910;-78
2024/02/18 07:53:33;;;;;;;;;;;9.00;99.90;;;;;;5012723;28;19906;-79
2024/02/18 07:55:59;;;;;;;;;;;8.90;99.90;;;;;;5012406;28;19918;-79
2024/02/18 07:58:24;;;;;;;;;;;9.00;99.90;;;;;;5011298;28;20374;-77
2024/02/18 08:00:50;;;;;;;;;;;9.00;99.90;;;;;;5004710;28;19913;-78
2024/02/18 08:03:15;;;;;;;;;;;8.90;99.90;;;;;;5000238;28;19948;-78
2024/02/18 08:05:41;;;;;;;;;;;8.90;99.90;;;;;;5000736;28;19920;-78
2024/02/18 08:08:07;;;;;;;;;;;8.90;99.90;;;;;;5001830;28;19913;-78
2024/02/18 08:10:32;;;;;;;;;;;9.00;99.90;;;;;;5002979;28;19910;-77
2024/02/18 08:12:58;;;;;;;;;;;9.20;99.90;;;;;;5000655;28;20000;-77
2024/02/18 08:15:24;;;;;;;;;;;9.20;99.90;;;;;;5002025;28;19920;-78
2024/02/18 08:17:50;;;;;;;;;;;9.10;99.90;;;;;;5001437;28;19933;-78
2024/02/18 08:20:15;;;;;;;;;;;9.00;99.90;;;;;;5000397;28;19906;-78
2024/02/18 08:22:41;;;;;;;;;;;9.20;99.90;;;;;;5002566;28;19949;-78
2024/02/18 08:25:07;;;;;;;;;;;9.00;99.90;;;;;;5000908;28;19913;-77
2024/02/18 08:27:32;;;;;;;;;;;9.00;99.90;;;;;;5000438;28;19910;-78
2024/02/18 08:29:58;;;;;;;;;;;8.90;99.90;;;;;;5001404;28;19909;-78
2024/02/18 08:32:26;;;;;;;;;;;8.80;99.90;;;;;;5007388;28;19945;-79
2024/02/18 08:34:52;;;;;;;;;;;8.80;99.90;;;;;;5003317;28;19921;-78
2024/02/18 08:37:17;;;;;;;;;;;8.80;99.90;;;;;;4999961;28;19905;-79
2024/02/18 08:39:43;;;;;;;;;;;8.80;99.90;;;;;;4999701;28;20425;-78
2024/02/18 08:42:08;;;;;;;;;;;8.70;99.90;;;;;;4999274;28;19910;-78
2024/02/18 08:44:36;;;;;;;;;;;8.60;99.90;;;;;;4998932;28;19953;-78
2024/02/18 08:47:02;;;;;;;;;;;8.60;99.90;;;;;;5001900;28;19937;-79
2024/02/18 08:49:27;;;;;;;;;;;8.70;99.90;;;;;;5006642;28;19906;-78
2024/02/18 08:51:54;;;;;;;;;;;8.80;99.90;;;;;;5004427;28;19940;-80
2024/02/18 08:54:20;;;;;;;;;;;8.80;99.90;;;;;;5002438;28;19906;-77
2024/02/18 08:56:45;;;;;;;;;;;8.80;99.90;;;;;;5000965;28;19914;-78
2024/02/18 08:59:11;;;;;;;;;;;8.80;99.90;;;;;;5006849;28;20011;-79
2024/02/18 09:01:36;;;;;;;;;;;8.70;99.90;;;;;;5017029;28;19917;-79
2024/02/18 09:04:02;;;;;;;;;;;8.70;99.90;;;;;;5004189;28;19905;-77
2024/02/18 09:06:28;;;;;;;;;;;8.80;99.90;;;;;;5002237;28;19910;-77
2024/02/18 09:08:54;;;;;;;;;;;8.80;99.90;;;;;;5007358;28;19981;-77
2024/02/18 09:11:19;;;;;;;;;;;8.70;99.90;;;;;;5006047;28;19970;-77
2024/02/18 09:13:45;;;;;;;;;;;8.70;99.90;;;;;;5004010;28;19960;-78
2024/02/18 09:16:10;;;;;;;;;;;8.70;99.90;;;;;;5004529;28;19918;-79
2024/02/18 09:18:37;;;;;;;;;;;8.80;99.90;;;;;;5006011;28;19948;-77
2024/02/18 09:21:02;;;;;;;;;;;8.90;99.90;;;;;;5002681;28;20322;-77
2024/02/18 09:23:28;;;;;;;;;;;9.20;99.90;;;;;;5001072;28;19910;-78
2024/02/18 09:25:53;;;;;;;;;;;9.40;99.90;;;;;;5000754;28;19960;-77
2024/02/18 09:28:19;;;;;;;;;;;9.50;99.90;;;;;;5000973;28;19949;-77
2024/02/18 09:30:45;;;;;;;;;;;9.50;99.90;;;;;;5001817;28;19912;-78
2024/02/18 09:33:11;;;;;;;;;;;9.70;99.90;;;;;;5004416;28;19921;-76
2024/02/18 09:35:36;;;;;;;;;;;9.80;99.90;;;;;;5002852;28;19921;-78
2024/02/18 09:38:08;;;;;;;;;;;10.10;99.90;;;;;;4997541;28;19910;-77
2024/02/18 09:40:35;;;;;;;;;;;10.50;99.90;;;;;;5001047;28;20270;-77
2024/02/18 09:43:00;;;;;;;;;;;11.00;99.40;;;;;;5000852;28;19912;-77
2024/02/18 09:45:27;;;;;;;;;;;11.00;98.80;;;;;;5000439;28;19941;-78
2024/02/18 09:47:52;;;;;;;;;;;10.80;98.40;;;;;;5000090;28;19913;-78
2024/02/18 09:50:18;;;;;;;;;;;10.70;98.60;;;;;;5000201;28;19905;-78
2024/02/18 09:52:45;;;;;;;;;;;10.70;98.70;;;;;;5000323;28;19964;-77
2024/02/18 09:55:11;;;;;;;;;;;10.70;98.60;;;;;;4999907;28;20325;-78
2024/02/18 09:57:38;;;;;;;;;;;10.60;98.40;;;;;;5000104;28;19905;-78
2024/02/18 10:00:04;;;;;;;;;;;10.70;98.30;;;;;;4998435;28;19906;-77
2024/02/18 10:02:32;;;;;;;;;;;10.70;99.10;;;;;;4999656;28;20378;-78
2024/02/18 10:04:58;;;;;;;;;;;10.60;98.50;;;;;;4999986;28;19906;-75
2024/02/18 10:07:23;;;;;;;;;;;10.70;97.50;;;;;;4999905;28;20369;-78
2024/02/18 10:09:49;;;;;;;;;;;10.60;97.00;;;;;;5000888;28;19913;-77
2024/02/18 10:12:15;;;;;;;;;;;10.40;98.40;;;;;;5001246;28;19964;-76
2024/02/18 10:14:41;;;;;;;;;;;10.10;99.30;;;;;;5002883;28;19940;-77
2024/02/18 10:17:06;;;;;;;;;;;9.90;99.90;;;;;;5002141;28;19914;-77
2024/02/18 10:19:33;;;;;;;;;;;9.80;99.90;;;;;;5002515;28;20060;-77
2024/02/18 10:22:00;;;;;;;;;;;9.70;99.90;;;;;;5002389;28;19909;-77
2024/02/18 10:24:29;;;;;;;;;;;9.70;99.90;;;;;;5005261;28;19938;-78
2024/02/18 10:26:57;;;;;;;;;;;9.60;99.90;;;;;;5005973;28;19912;-77
2024/02/18 10:29:24;;;;;;;;;;;9.50;99.90;;;;;;5005360;28;19912;-78
2024/02/18 10:31:49;;;;;;;;;;;9.40;99.90;;;;;;5005553;28;19913;-78
2024/02/18 10:34:15;;;;;;;;;;;9.40;99.90;;;;;;5004306;28;19909;-78
2024/02/18 10:36:46;;;;;;;;;;;9.40;99.90;;;;;;5006814;28;20073;-79
2024/02/18 10:39:14;;;;;;;;;;;9.50;99.90;;;;;;5007245;28;20376;-78
2024/02/18 10:41:41;;;;;;;;;;;9.50;99.90;;;;;;5008687;28;19905;-79
2024/02/18 10:44:10;;;;;;;;;;;9.60;99.90;;;;;;5020688;28;19920;-78
2024/02/18 10:46:37;;;;;;;;;;;9.60;99.90;;;;;;5011635;28;19920;-76
2024/02/18 10:49:18;;;;;;;;;;;9.50;99.90;;;;;;5008246;28;19909;-77
2024/02/18 10:51:49;;;;;;;;;;;9.50;99.90;;;;;;5026986;28;19905;-79
2024/02/18 10:54:27;;;;;;;;;;;9.30;99.90;;;;;;5008665;28;19912;-78
2024/02/18 10:56:54;;;;;;;;;;;9.20;99.90;;;;;;5009123;28;19920;-79
2024/02/18 10:59:46;;;;;;;;;;;9.20;99.90;;;;;;5026379;28;19910;-78
2024/02/18 11:02:14;;;;;;;;;;;9.20;99.90;;;;;;4987122;28;20440;-77
2024/02/18 11:04:40;;;;;;;;;;;9.10;99.90;;;;;;5026859;28;19909;-78
2024/02/18 11:07:06;;;;;;;;;;;9.10;99.90;;;;;;5007945;28;19909;-76
2024/02/18 11:09:33;;;;;;;;;;;9.20;99.90;;;;;;5009616;28;19912;-78
2024/02/18 11:12:00;;;;;;;;;;;9.10;99.90;;;;;;5026660;28;19925;-79
2024/02/18 11:14:26;;;;;;;;;;;9.10;99.90;;;;;;5030582;28;19941;-78
2024/02/18 11:16:52;;;;;;;;;;;9.10;99.90;;;;;;5012387;28;20384;-77
2024/02/18 11:19:19;;;;;;;;;;;9.10;99.90;;;;;;5008749;28;19905;-78
2024/02/18 11:21:45;;;;;;;;;;;9.20;99.90;;;;;;5013693;28;19905;-78
2024/02/18 11:24:10;;;;;;;;;;;9.20;99.90;;;;;;5032995;28;19904;-79
2024/02/18 11:26:36;;;;;;;;;;;9.20;99.90;;;;;;5025046;28;19920;-77
2024/02/18 11:29:02;;;;;;;;;;;9.20;99.90;;;;;;5023868;28;19905;-78
2024/02/18 11:31:29;;;;;;;;;;;9.10;99.90;;;;;;5006992;28;19916;-78
2024/02/18 11:33:54;;;;;;;;;;;9.10;99.90;;;;;;5005716;28;20020;-78
2024/02/18 11:36:22;;;;;;;;;;;9.20;99.90;;;;;;5006136;28;20401;-79
2024/02/18 11:38:52;;;;;;;;;;;9.30;99.90;;;;;;5005937;28;19909;-78
2024/02/18 11:41:18;;;;;;;;;;;9.20;99.90;;;;;;5004592;28;19909;-77
2024/02/18 11:43:43;;;;;;;;;;;9.10;99.90;;;;;;5003013;28;19977;-78
2024/02/18 11:46:19;;;;;;;;;;;9.10;99.90;;;;;;5022818;28;19920;-77
2024/02/18 11:48:45;;;;;;;;;;;9.00;99.90;;;;;;5003918;28;19912;-79
2024/02/18 11:51:10;;;;;;;;;;;9.00;99.90;;;;;;5023002;28;19909;-78
2024/02/18 11:53:38;;;;;;;;;;;9.00;99.60;;;;;;5021735;28;19913;-78
2024/02/18 11:56:03;;;;;;;;;;;9.10;99.90;;;;;;5022900;28;19963;-77
2024/02/18 11:58:29;;;;;;;;;;;9.10;99.90;;;;;;5024858;28;19909;-78
2024/02/18 12:00:54;;;;;;;;;;;9.10;99.90;;;;;;5006704;28;19909;-78
2024/02/18 12:03:24;;;;;;;;;;;9.20;99.40;;;;;;5006083;28;19906;-78
2024/02/18 12:05:51;;;;;;;;;;;9.30;99.20;;;;;;5018269;28;19909;-78
2024/02/18 12:08:16;;;;;;;;;;;9.30;98.80;;;;;;5003513;28;19944;-78
2024/02/18 12:10:42;;;;;;;;;;;9.50;99.00;;;;;;5003393;28;19978;-78
2024/02/18 12:13:07;;;;;;;;;;;9.20;99.40;;;;;;5021854;28;19920;-78
2024/02/18 12:15:33;;;;;;;;;;;9.20;99.50;;;;;;5004920;28;20424;-78
2024/02/18 12:17:59;;;;;;;;;;;9.30;99.00;;;;;;5005744;28;19951;-78
2024/02/18 12:20:27;;;;;;;;;;;9.30;99.10;;;;;;5022392;28;19905;-76
2024/02/18 12:22:55;;;;;;;;;;;9.40;98.80;;;;;;5001622;28;19909;-77
2024/02/18 12:25:21;;;;;;;;;;;9.40;98.50;;;;;;5002557;28;20326;-78
2024/02/18 12:27:46;;;;;;;;;;;9.50;98.10;;;;;;5003549;28;19911;-77
2024/02/18 12:30:12;;;;;;;;;;;9.50;98.00;;;;;;5018505;28;19905;-77
2024/02/18 12:32:38;;;;;;;;;;;9.60;97.90;;;;;;5002435;28;19916;-78
2024/02/18 12:35:04;;;;;;;;;;;9.60;97.90;;;;;;5000221;28;20390;-78
2024/02/18 12:37:30;;;;;;;;;;;9.60;97.50;;;;;;5020235;28;20394;-79
2024/02/18 12:39:56;;;;;;;;;;;9.70;97.80;;;;;;5001977;28;19909;-78
2024/02/18 12:42:22;;;;;;;;;;;9.70;97.70;;;;;;5020631;28;19910;-78
2024/02/18 12:44:48;;;;;;;;;;;9.80;97.00;;;;;;5000825;28;20000;-79
2024/02/18 12:47:16;;;;;;;;;;;9.80;96.50;;;;;;5004032;28;19909;-78
2024/02/18 12:49:44;;;;;;;;;;;9.80;96.70;;;;;;5021441;28;20333;-79
2024/02/18 12:52:11;;;;;;;;;;;9.90;96.10;;;;;;5003631;28;19914;-79
2024/02/18 12:54:37;;;;;;;;;;;9.80;96.10;;;;;;5004493;28;20378;-80
2024/02/18 12:57:06;;;;;;;;;;;9.80;96.90;;;;;;5022849;28;19913;-78
2024/02/18 12:59:33;;;;;;;;;;;9.80;97.00;;;;;;5005698;28;20023;-79
2024/02/18 13:01:59;;;;;;;;;;;9.70;96.80;;;;;;5004457;28;20007;-78
2024/02/18 13:04:25;;;;;;;;;;;9.70;97.50;;;;;;5006126;28;19905;-80
2024/02/18 13:06:54;;;;;;;;;;;9.70;97.10;;;;;;5007337;28;19990;-79
2024/02/18 13:09:23;;;;;;;;;;;9.70;95.90;;;;;;5005825;28;19992;-79
2024/02/18 13:11:49;;;;;;;;;;;9.70;95.70;;;;;;5008002;28;19967;-79
2024/02/18 13:14:15;;;;;;;;;;;9.80;96.10;;;;;;5008653;28;19905;-79
2024/02/18 13:16:40;;;;;;;;;;;9.80;96.30;;;;;;5011990;28;19920;-80
2024/02/18 13:19:06;;;;;;;;;;;9.80;96.50;;;;;;5014137;28;19914;-79
2024/02/18 13:21:31;;;;;;;;;;;9.80;96.80;;;;;;5034717;28;19909;-79
2024/02/18 13:24:14;;;;;;;;;;;9.90;96.20;;;;;;5035054;28;19889;-79
2024/02/18 13:26:39;;;;;;;;;;;10.00;95.80;;;;;;5010333;28;19905;-79
2024/02/18 13:29:05;;;;;;;;;;;10.10;95.80;;;;;;5019854;28;19900;-80
2024/02/18 13:31:30;;;;;;;;;;;10.10;95.60;;;;;;5019960;28;19909;-80
2024/02/18 13:33:56;;;;;;;;;;;10.20;95.30;;;;;;5012882;28;20044;-79
2024/02/18 13:36:22;;;;;;;;;;;10.20;95.80;;;;;;5010803;28;19928;-79
2024/02/18 13:38:48;;;;;;;;;;;10.30;96.00;;;;;;5011790;28;20377;-80
2024/02/18 13:41:13;;;;;;;;;;;10.40;95.40;;;;;;5026421;28;19906;-79
2024/02/18 13:43:39;;;;;;;;;;;10.40;95.60;;;;;;5028532;28;19993;-80
2024/02/18 13:46:04;;;;;;;;;;;10.40;95.80;;;;;;5010893;28;20008;-80
2024/02/18 13:48:32;;;;;;;;;;;10.50;96.80;;;;;;5013516;28;19905;-79
2024/02/18 13:50:57;;;;;;;;;;;10.50;96.00;;;;;;5030835;28;19905;-79
2024/02/18 13:53:24;;;;;;;;;;;10.50;96.10;;;;;;5030822;28;20411;-80
2024/02/18 13:55:57;;;;;;;;;;;10.50;96.40;;;;;;5032023;28;19928;-78
2024/02/18 13:58:23;;;;;;;;;;;10.50;96.60;;;;;;5029877;28;20305;-79
2024/02/18 14:00:49;;;;;;;;;;;10.50;96.50;;;;;;5012186;28;19909;-80
2024/02/18 14:03:14;;;;;;;;;;;10.50;95.90;;;;;;5011173;28;19959;-80
2024/02/18 14:05:40;;;;;;;;;;;10.40;96.10;;;;;;5029750;28;19916;-79
2024/02/18 14:08:06;;;;;;;;;;;10.30;96.40;;;;;;5030165;28;19912;-82
2024/02/18 14:10:32;;;;;;;;;;;10.30;97.40;;;;;;5030753;28;20011;-79